createdAt,value
2023-04-30T00:00:16.832Z,9.51
2023-04-30T00:01:16.831Z,9.47
2023-04-30T00:02:16.892Z,9.46
2023-04-30T00:03:16.891Z,9.43
2023-04-30T00:04:16.807Z,9.37
2023-04-30T00:05:16.780Z,9.36
2023-04-30T00:06:16.835Z,9.34
2023-04-30T00:07:16.953Z,9.28
2023-04-30T00:08:16.735Z,9.22
2023-04-30T00:09:16.751Z,9.18
2023-04-30T00:10:16.709Z,9.11
2023-04-30T00:11:16.738Z,9.06
2023-04-30T00:12:16.748Z,9.03
2023-04-30T00:13:16.688Z,9.02
2023-04-30T00:14:16.674Z,9.00
2023-04-30T00:15:16.668Z,9.08
2023-04-30T00:16:16.709Z,9.11
2023-04-30T00:17:16.694Z,9.13
2023-04-30T00:18:16.635Z,9.11
2023-04-30T00:19:16.615Z,9.10
2023-04-30T00:20:16.613Z,9.04
2023-04-30T00:21:16.591Z,8.97
2023-04-30T00:22:16.620Z,8.91
2023-04-30T00:23:16.568Z,8.85
2023-04-30T00:24:16.552Z,8.78
2023-04-30T00:25:16.610Z,8.70
2023-04-30T00:26:16.546Z,8.61
2023-04-30T00:27:16.573Z,8.49
2023-04-30T00:28:16.515Z,8.37
2023-04-30T00:29:16.510Z,8.30
2023-04-30T00:30:16.493Z,8.27
2023-04-30T00:31:16.494Z,8.24
2023-04-30T00:32:16.571Z,8.18
2023-04-30T00:33:16.479Z,8.12
2023-04-30T00:34:16.442Z,8.05
2023-04-30T00:35:16.459Z,7.98
2023-04-30T00:36:16.417Z,7.93
2023-04-30T00:37:16.448Z,7.87
2023-04-30T00:38:16.397Z,7.77
2023-04-30T00:39:16.410Z,7.76
2023-04-30T00:40:16.373Z,7.69
2023-04-30T00:41:16.378Z,7.61
2023-04-30T00:42:16.419Z,7.54
2023-04-30T00:43:16.349Z,7.54
2023-04-30T00:44:16.360Z,7.51
2023-04-30T00:45:16.324Z,7.47
2023-04-30T00:46:16.320Z,7.36
2023-04-30T00:47:16.354Z,7.36
2023-04-30T00:48:16.296Z,7.28
2023-04-30T00:49:16.274Z,7.18
2023-04-30T00:50:16.390Z,7.14
2023-04-30T00:51:16.268Z,7.10
2023-04-30T00:52:16.296Z,7.06
2023-04-30T00:53:16.261Z,7.05
2023-04-30T00:54:16.220Z,6.97
2023-04-30T00:55:16.213Z,7.02
2023-04-30T00:56:16.191Z,6.97
2023-04-30T00:57:16.236Z,6.95
2023-04-30T00:58:16.171Z,6.85
2023-04-30T00:59:16.150Z,6.84
2023-04-30T01:00:16.176Z,6.85
2023-04-30T01:01:16.156Z,6.95
2023-04-30T01:02:16.188Z,6.96
2023-04-30T01:03:16.341Z,6.96
2023-04-30T01:04:16.099Z,6.85
2023-04-30T01:05:16.108Z,6.81
2023-04-30T01:06:16.118Z,6.77
2023-04-30T01:07:16.107Z,6.78
2023-04-30T01:08:16.071Z,6.77
2023-04-30T01:09:16.065Z,6.75
2023-04-30T01:10:16.057Z,6.66
2023-04-30T01:11:16.016Z,6.64
2023-04-30T01:12:16.099Z,6.59
2023-04-30T01:13:16.000Z,6.54
2023-04-30T01:14:15.991Z,6.51
2023-04-30T01:15:16.000Z,6.48
2023-04-30T01:16:15.986Z,6.45
2023-04-30T01:17:16.059Z,6.39
2023-04-30T01:18:16.102Z,6.38
2023-04-30T01:19:16.005Z,6.35
2023-04-30T01:20:15.945Z,6.33
2023-04-30T01:21:15.919Z,6.26
2023-04-30T01:22:15.944Z,6.26
2023-04-30T01:23:15.883Z,6.17
2023-04-30T01:24:15.886Z,6.12
2023-04-30T01:25:15.864Z,6.08
2023-04-30T01:26:15.852Z,6.05
2023-04-30T01:27:15.868Z,6.09
2023-04-30T01:28:15.850Z,6.08
2023-04-30T01:29:15.829Z,6.07
2023-04-30T01:30:15.820Z,6.07
2023-04-30T01:31:15.795Z,6.08
2023-04-30T01:32:15.838Z,5.99
2023-04-30T01:33:15.782Z,5.94
2023-04-30T01:34:15.766Z,5.93
2023-04-30T01:35:15.752Z,5.89
2023-04-30T01:36:15.753Z,5.86
2023-04-30T01:37:15.729Z,5.79
2023-04-30T01:38:15.756Z,5.76
2023-04-30T01:39:15.710Z,5.79
2023-04-30T01:40:15.707Z,5.76
2023-04-30T01:41:15.685Z,5.79
2023-04-30T01:42:15.676Z,5.76
2023-04-30T01:43:15.717Z,5.76
2023-04-30T01:44:15.668Z,5.82
2023-04-30T01:45:15.658Z,5.86
2023-04-30T01:46:15.683Z,5.89
2023-04-30T01:47:15.648Z,5.90
2023-04-30T01:48:15.633Z,5.87
2023-04-30T01:49:15.604Z,5.89
2023-04-30T01:50:15.596Z,5.91
2023-04-30T01:51:15.589Z,5.87
2023-04-30T01:52:15.619Z,5.84
2023-04-30T01:53:15.606Z,5.80
2023-04-30T01:54:15.542Z,5.80
2023-04-30T01:55:15.528Z,5.82
2023-04-30T01:56:15.516Z,5.80
2023-04-30T01:57:15.552Z,5.73
2023-04-30T01:58:15.560Z,5.69
2023-04-30T01:59:15.492Z,5.66
2023-04-30T02:00:15.495Z,5.62
2023-04-30T02:01:15.524Z,5.56
2023-04-30T02:02:15.493Z,5.48
2023-04-30T02:03:15.515Z,5.46
2023-04-30T02:04:15.430Z,5.43
2023-04-30T02:05:15.436Z,5.46
2023-04-30T02:06:15.459Z,5.44
2023-04-30T02:07:15.451Z,5.38
2023-04-30T02:08:15.408Z,5.33
2023-04-30T02:09:15.384Z,5.32
2023-04-30T02:10:15.394Z,5.23
2023-04-30T02:11:15.364Z,5.21
2023-04-30T02:12:15.358Z,5.25
2023-04-30T02:13:15.366Z,5.21
2023-04-30T02:14:15.352Z,5.17
2023-04-30T02:15:15.353Z,5.17
2023-04-30T02:16:15.364Z,5.12
2023-04-30T02:17:15.322Z,5.08
2023-04-30T02:18:15.303Z,5.00
2023-04-30T02:19:15.518Z,4.92
2023-04-30T02:20:15.269Z,4.86
2023-04-30T02:21:15.261Z,4.84
2023-04-30T02:22:15.309Z,4.77
2023-04-30T02:23:15.214Z,4.80
2023-04-30T02:24:15.198Z,4.75
2023-04-30T02:25:15.199Z,4.66
2023-04-30T02:26:15.175Z,4.68
2023-04-30T02:27:15.176Z,4.68
2023-04-30T02:28:15.199Z,4.63
2023-04-30T02:29:15.167Z,4.66
2023-04-30T02:30:15.127Z,4.70
2023-04-30T02:31:15.164Z,4.73
2023-04-30T02:32:15.105Z,4.73
2023-04-30T02:33:15.144Z,4.73
2023-04-30T02:34:15.084Z,4.70
2023-04-30T02:35:15.084Z,4.68
2023-04-30T02:36:15.088Z,4.68
2023-04-30T02:37:15.063Z,4.70
2023-04-30T02:38:15.093Z,4.73
2023-04-30T02:39:15.044Z,4.74
2023-04-30T02:40:15.050Z,4.70
2023-04-30T02:41:15.028Z,4.68
2023-04-30T02:42:15.034Z,4.66
2023-04-30T02:43:15.037Z,4.63
2023-04-30T02:44:14.984Z,4.63
2023-04-30T02:45:14.971Z,4.60
2023-04-30T02:46:15.016Z,4.58
2023-04-30T02:47:14.941Z,4.56
2023-04-30T02:48:14.970Z,4.50
2023-04-30T02:49:14.923Z,4.45
2023-04-30T02:50:14.919Z,4.40
2023-04-30T02:51:14.922Z,4.30
2023-04-30T02:52:14.901Z,4.28
2023-04-30T02:53:14.922Z,4.28
2023-04-30T02:54:14.880Z,4.14
2023-04-30T02:55:14.851Z,4.10
2023-04-30T02:56:14.860Z,4.04
2023-04-30T02:57:14.830Z,4.01
2023-04-30T02:58:14.857Z,4.02
2023-04-30T02:59:14.808Z,4.05
2023-04-30T03:00:14.830Z,4.04
2023-04-30T03:01:14.842Z,4.05
2023-04-30T03:02:14.828Z,3.99
2023-04-30T03:03:14.890Z,3.81
2023-04-30T03:04:14.788Z,3.73
2023-04-30T03:05:14.737Z,3.74
2023-04-30T03:06:14.792Z,3.73
2023-04-30T03:07:14.717Z,3.73
2023-04-30T03:08:14.736Z,3.73
2023-04-30T03:09:14.691Z,3.68
2023-04-30T03:10:14.706Z,3.69
2023-04-30T03:11:14.684Z,3.69
2023-04-30T03:12:14.671Z,3.58
2023-04-30T03:13:14.697Z,3.62
2023-04-30T03:14:14.649Z,3.74
2023-04-30T03:15:14.637Z,3.69
2023-04-30T03:16:14.687Z,3.69
2023-04-30T03:17:14.613Z,3.63
2023-04-30T03:18:14.695Z,3.56
2023-04-30T03:19:14.585Z,3.55
2023-04-30T03:20:14.587Z,3.58
2023-04-30T03:21:14.565Z,3.65
2023-04-30T03:22:14.581Z,3.74
2023-04-30T03:23:14.569Z,3.69
2023-04-30T03:24:14.516Z,3.77
2023-04-30T03:25:14.507Z,-40.00
2023-04-30T03:26:14.507Z,-40.00
2023-04-30T03:27:14.487Z,-39.96
2023-04-30T03:28:14.517Z,-40.00
2023-04-30T03:29:14.487Z,3.78
2023-04-30T03:30:14.461Z,3.56
2023-04-30T03:31:14.496Z,3.55
2023-04-30T03:32:14.458Z,3.55
2023-04-30T03:33:14.515Z,3.58
2023-04-30T03:34:14.431Z,3.78
2023-04-30T03:35:14.399Z,3.78
2023-04-30T03:36:14.401Z,3.62
2023-04-30T03:37:14.378Z,3.76
2023-04-30T03:38:14.536Z,3.78
2023-04-30T03:39:14.360Z,3.74
2023-04-30T03:40:14.419Z,3.70
2023-04-30T03:41:14.339Z,3.60
2023-04-30T03:42:14.329Z,3.80
2023-04-30T03:43:14.368Z,3.80
2023-04-30T03:44:14.312Z,3.81
2023-04-30T03:45:14.309Z,3.80
2023-04-30T03:46:14.313Z,3.81
2023-04-30T03:47:14.278Z,3.88
2023-04-30T03:48:14.310Z,3.84
2023-04-30T03:49:14.252Z,4.14
2023-04-30T03:50:14.243Z,4.16
2023-04-30T03:51:14.244Z,4.12
2023-04-30T03:52:14.219Z,4.22
2023-04-30T03:53:14.221Z,4.20
2023-04-30T03:54:14.191Z,4.22
2023-04-30T03:55:14.186Z,4.22
2023-04-30T03:56:14.166Z,4.23
2023-04-30T03:57:14.176Z,4.24
2023-04-30T03:58:14.186Z,4.24
2023-04-30T03:59:14.139Z,4.26
2023-04-30T04:00:14.136Z,4.23
2023-04-30T04:01:14.125Z,4.13
2023-04-30T04:02:14.150Z,4.01
2023-04-30T04:03:14.150Z,4.01
2023-04-30T04:04:14.120Z,3.96
2023-04-30T04:05:14.068Z,3.91
2023-04-30T04:06:14.087Z,3.81
2023-04-30T04:07:14.056Z,3.83
2023-04-30T04:08:14.072Z,3.86
2023-04-30T04:09:14.057Z,3.88
2023-04-30T04:10:14.027Z,3.92
2023-04-30T04:11:14.009Z,3.94
2023-04-30T04:12:13.990Z,3.98
2023-04-30T04:13:14.029Z,4.01
2023-04-30T04:14:13.967Z,4.01
2023-04-30T04:15:13.955Z,4.02
2023-04-30T04:16:14.005Z,-39.96
2023-04-30T04:17:13.932Z,-40.00
2023-04-30T04:18:13.989Z,-39.96
2023-04-30T04:19:14.267Z,4.26
2023-04-30T04:20:14.265Z,-40.00
2023-04-30T04:21:13.896Z,4.42
2023-04-30T04:22:13.896Z,4.77
2023-04-30T04:23:13.888Z,-39.96
2023-04-30T04:24:13.898Z,-40.00
2023-04-30T04:25:13.846Z,-39.96
2023-04-30T04:26:13.841Z,-39.96
2023-04-30T04:27:13.823Z,5.86
2023-04-30T04:28:13.804Z,6.28
2023-04-30T04:29:13.854Z,6.54
2023-04-30T04:30:13.830Z,6.64
2023-04-30T04:31:13.801Z,6.81
2023-04-30T04:32:13.776Z,6.99
2023-04-30T04:33:13.757Z,7.14
2023-04-30T04:34:13.785Z,7.23
2023-04-30T04:35:13.781Z,7.51
2023-04-30T04:36:13.743Z,7.82
2023-04-30T04:37:13.720Z,8.01
2023-04-30T04:38:13.708Z,8.51
2023-04-30T04:39:13.728Z,8.79
2023-04-30T04:40:13.686Z,8.85
2023-04-30T04:41:13.664Z,8.88
2023-04-30T04:42:13.664Z,8.88
2023-04-30T04:43:13.645Z,8.87
2023-04-30T04:44:13.680Z,8.82
2023-04-30T04:45:13.613Z,9.16
2023-04-30T04:46:14.449Z,9.46
2023-04-30T04:47:13.591Z,9.82
2023-04-30T04:48:13.594Z,9.97
2023-04-30T04:49:13.618Z,10.12
2023-04-30T04:50:13.578Z,10.31
2023-04-30T04:51:13.554Z,10.72
2023-04-30T04:52:13.544Z,10.71
2023-04-30T04:53:13.528Z,10.86
2023-04-30T04:54:13.555Z,10.97
2023-04-30T04:55:13.506Z,11.17
2023-04-30T04:56:13.514Z,11.33
2023-04-30T04:57:13.497Z,11.57
2023-04-30T04:58:13.474Z,11.62
2023-04-30T04:59:13.487Z,11.77
2023-04-30T05:00:13.450Z,11.94
2023-04-30T05:01:13.467Z,12.04
2023-04-30T05:02:13.411Z,11.94
2023-04-30T05:03:13.508Z,11.97
2023-04-30T05:04:13.432Z,11.83
2023-04-30T05:05:13.410Z,12.07
2023-04-30T05:06:13.429Z,12.40
2023-04-30T05:07:13.374Z,12.65
2023-04-30T05:08:13.381Z,13.03
2023-04-30T05:09:13.440Z,13.08
2023-04-30T05:10:13.345Z,13.09
2023-04-30T05:11:15.541Z,13.23
2023-04-30T05:12:13.309Z,13.13
2023-04-30T05:13:13.329Z,13.50
2023-04-30T05:14:13.335Z,13.28
2023-04-30T05:15:13.329Z,13.19
2023-04-30T05:16:13.322Z,13.41
2023-04-30T05:17:13.270Z,13.50
2023-04-30T05:18:13.253Z,13.12
2023-04-30T05:19:13.285Z,12.97
2023-04-30T05:20:13.246Z,13.09
2023-04-30T05:21:13.212Z,13.23
2023-04-30T05:22:13.206Z,13.53
2023-04-30T05:23:13.200Z,13.16
2023-04-30T05:24:13.233Z,13.54
2023-04-30T05:25:13.161Z,13.67
2023-04-30T05:26:13.141Z,13.62
2023-04-30T05:27:13.147Z,14.14
2023-04-30T05:28:13.132Z,14.03
2023-04-30T05:29:13.166Z,14.11
2023-04-30T05:30:13.121Z,14.05
2023-04-30T05:31:13.137Z,14.18
2023-04-30T05:32:13.156Z,14.17
2023-04-30T05:33:13.145Z,14.22
2023-04-30T05:34:13.102Z,14.04
2023-04-30T05:35:13.069Z,13.97
2023-04-30T05:36:13.054Z,14.55
2023-04-30T05:37:13.079Z,14.29
2023-04-30T05:38:13.043Z,14.35
2023-04-30T05:39:13.048Z,14.37
2023-04-30T05:40:13.019Z,14.47
2023-04-30T05:41:13.148Z,14.77
2023-04-30T05:42:13.043Z,14.54
2023-04-30T05:43:12.960Z,14.32
2023-04-30T05:44:12.993Z,14.30
2023-04-30T05:45:12.936Z,14.58
2023-04-30T05:46:12.975Z,14.63
2023-04-30T05:47:12.934Z,14.86
2023-04-30T05:48:12.991Z,14.65
2023-04-30T05:49:12.946Z,14.94
2023-04-30T05:50:12.891Z,15.25
2023-04-30T05:51:12.899Z,15.33
2023-04-30T05:52:12.849Z,14.66
2023-04-30T05:53:12.858Z,14.59
2023-04-30T05:54:12.924Z,15.09
2023-04-30T05:55:12.851Z,15.40
2023-04-30T05:56:12.814Z,15.62
2023-04-30T05:57:12.798Z,15.22
2023-04-30T05:58:12.802Z,14.29
2023-04-30T05:59:12.819Z,14.15
2023-04-30T06:00:12.797Z,13.08
2023-04-30T06:01:12.793Z,13.09
2023-04-30T06:02:12.790Z,13.62
2023-04-30T06:03:12.791Z,13.78
2023-04-30T06:04:12.766Z,13.93
2023-04-30T06:05:15.329Z,14.47
2023-04-30T06:06:12.831Z,15.06
2023-04-30T06:07:12.719Z,15.06
2023-04-30T06:08:12.686Z,14.92
2023-04-30T06:09:12.730Z,14.72
2023-04-30T06:10:12.807Z,14.32
2023-04-30T06:11:12.678Z,14.91
2023-04-30T06:12:12.655Z,14.78
2023-04-30T06:13:12.661Z,14.68
2023-04-30T06:14:12.673Z,14.88
2023-04-30T06:15:12.628Z,14.12
2023-04-30T06:16:12.630Z,14.54
2023-04-30T06:17:12.606Z,13.93
2023-04-30T06:18:12.613Z,13.39
2023-04-30T06:19:12.596Z,13.49
2023-04-30T06:20:12.539Z,13.72
2023-04-30T06:21:12.530Z,13.99
2023-04-30T06:22:12.573Z,14.25
2023-04-30T06:23:12.524Z,14.50
2023-04-30T06:24:12.570Z,14.54
2023-04-30T06:25:12.489Z,13.99
2023-04-30T06:26:12.497Z,13.31
2023-04-30T06:27:12.482Z,13.71
2023-04-30T06:28:12.479Z,13.97
2023-04-30T06:29:12.459Z,14.53
2023-04-30T06:30:12.472Z,14.79
2023-04-30T06:31:12.452Z,14.05
2023-04-30T06:32:12.454Z,14.08
2023-04-30T06:33:12.416Z,14.11
2023-04-30T06:34:12.376Z,14.43
2023-04-30T06:35:12.436Z,14.60
2023-04-30T06:36:12.357Z,14.26
2023-04-30T06:37:12.368Z,14.55
2023-04-30T06:38:12.350Z,14.89
2023-04-30T06:39:12.360Z,15.25
2023-04-30T06:40:12.376Z,15.54
2023-04-30T06:41:12.308Z,15.97
2023-04-30T06:42:12.300Z,16.26
2023-04-30T06:43:12.303Z,16.65
2023-04-30T06:44:12.290Z,16.83
2023-04-30T06:45:12.348Z,17.20
2023-04-30T06:46:12.288Z,17.57
2023-04-30T06:47:12.257Z,17.87
2023-04-30T06:48:12.239Z,18.03
2023-04-30T06:49:12.238Z,17.31
2023-04-30T06:50:12.264Z,16.15
2023-04-30T06:51:12.201Z,16.53
2023-04-30T06:52:12.267Z,17.08
2023-04-30T06:53:12.171Z,17.85
2023-04-30T06:54:12.166Z,18.23
2023-04-30T06:55:12.229Z,18.53
2023-04-30T06:56:12.155Z,18.07
2023-04-30T06:57:12.139Z,18.03
2023-04-30T06:58:12.133Z,17.65
2023-04-30T06:59:12.125Z,17.56
2023-04-30T07:00:12.148Z,17.42
2023-04-30T07:01:12.105Z,17.74
2023-04-30T07:02:12.168Z,17.41
2023-04-30T07:03:12.158Z,17.83
2023-04-30T07:04:12.064Z,18.26
2023-04-30T07:05:12.100Z,18.62
2023-04-30T07:06:12.087Z,18.34
2023-04-30T07:07:12.036Z,17.98
2023-04-30T07:08:12.065Z,18.35
2023-04-30T07:09:12.034Z,18.78
2023-04-30T07:10:12.014Z,18.88
2023-04-30T07:11:11.972Z,19.62
2023-04-30T07:12:11.999Z,19.33
2023-04-30T07:13:11.946Z,19.91
2023-04-30T07:14:11.944Z,20.03
2023-04-30T07:15:11.986Z,19.95
2023-04-30T07:16:12.008Z,20.00
2023-04-30T07:17:11.912Z,20.32
2023-04-30T07:18:11.912Z,20.41
2023-04-30T07:19:11.898Z,19.40
2023-04-30T07:20:11.895Z,19.37
2023-04-30T07:21:11.882Z,17.01
2023-04-30T07:22:11.860Z,17.05
2023-04-30T07:23:11.872Z,16.74
2023-04-30T07:24:11.842Z,17.38
2023-04-30T07:25:11.816Z,18.33
2023-04-30T07:26:11.836Z,18.37
2023-04-30T07:27:11.836Z,18.44
2023-04-30T07:28:11.785Z,18.59
2023-04-30T07:29:11.791Z,17.15
2023-04-30T07:30:11.784Z,15.91
2023-04-30T07:31:11.815Z,15.59
2023-04-30T07:32:11.752Z,16.66
2023-04-30T07:33:11.740Z,16.35
2023-04-30T07:34:11.705Z,16.72
2023-04-30T07:35:11.708Z,17.41
2023-04-30T07:36:11.737Z,17.63
2023-04-30T07:37:11.711Z,16.53
2023-04-30T07:38:11.666Z,15.68
2023-04-30T07:39:11.767Z,15.88
2023-04-30T07:40:13.267Z,16.60
2023-04-30T07:41:11.663Z,17.27
2023-04-30T07:42:11.645Z,18.01
2023-04-30T07:43:11.604Z,18.31
2023-04-30T07:44:11.614Z,18.04
2023-04-30T07:45:11.566Z,18.33
2023-04-30T07:46:11.639Z,18.95
2023-04-30T07:47:11.575Z,19.58
2023-04-30T07:48:11.552Z,19.71
2023-04-30T07:49:11.536Z,19.64
2023-04-30T07:50:11.548Z,19.55
2023-04-30T07:51:11.540Z,18.75
2023-04-30T07:52:11.519Z,19.02
2023-04-30T07:53:11.492Z,18.99
2023-04-30T07:54:11.509Z,19.27
2023-04-30T07:55:11.501Z,17.20
2023-04-30T07:56:11.504Z,17.44
2023-04-30T07:57:11.450Z,17.95
2023-04-30T07:58:11.480Z,18.20
2023-04-30T07:59:11.426Z,18.08
2023-04-30T08:00:11.444Z,18.16
2023-04-30T08:01:11.458Z,17.67
2023-04-30T08:02:11.429Z,16.53
2023-04-30T08:03:11.474Z,17.06
2023-04-30T08:04:11.400Z,17.48
2023-04-30T08:05:11.373Z,18.05
2023-04-30T08:06:11.424Z,18.40
2023-04-30T08:07:11.356Z,18.55
2023-04-30T08:08:11.346Z,18.71
2023-04-30T08:09:11.335Z,18.98
2023-04-30T08:10:11.337Z,19.51
2023-04-30T08:11:11.344Z,19.16
2023-04-30T08:12:11.299Z,18.93
2023-04-30T08:13:11.304Z,19.27
2023-04-30T08:14:11.276Z,20.09
2023-04-30T08:15:11.252Z,20.97
2023-04-30T08:16:11.358Z,21.25
2023-04-30T08:17:11.205Z,20.87
2023-04-30T08:18:11.241Z,20.92
2023-04-30T08:19:11.229Z,19.88
2023-04-30T08:20:11.204Z,18.80
2023-04-30T08:21:11.207Z,17.85
2023-04-30T08:22:11.169Z,16.61
2023-04-30T08:23:11.168Z,16.17
2023-04-30T08:24:11.171Z,17.06
2023-04-30T08:25:11.157Z,17.67
2023-04-30T08:26:11.156Z,17.85
2023-04-30T08:27:11.118Z,17.12
2023-04-30T08:28:11.163Z,17.70
2023-04-30T08:29:11.094Z,17.76
2023-04-30T08:30:11.091Z,17.92
2023-04-30T08:31:11.144Z,18.96
2023-04-30T08:32:11.127Z,19.76
2023-04-30T08:33:11.112Z,19.96
2023-04-30T08:34:11.067Z,19.22
2023-04-30T08:35:11.037Z,18.73
2023-04-30T08:36:11.065Z,18.15
2023-04-30T08:37:11.006Z,17.67
2023-04-30T08:38:11.006Z,17.29
2023-04-30T08:39:10.997Z,17.86
2023-04-30T08:40:11.004Z,18.01
2023-04-30T08:41:11.025Z,18.43
2023-04-30T08:42:10.967Z,18.86
2023-04-30T08:43:10.946Z,18.83
2023-04-30T08:44:10.920Z,18.59
2023-04-30T08:45:10.900Z,17.72
2023-04-30T08:46:10.963Z,16.94
2023-04-30T08:47:10.898Z,17.70
2023-04-30T08:48:10.874Z,17.57
2023-04-30T08:49:10.874Z,18.00
2023-04-30T08:50:10.871Z,18.00
2023-04-30T08:51:10.894Z,18.58
2023-04-30T08:52:10.848Z,19.09
2023-04-30T08:53:10.808Z,19.31
2023-04-30T08:54:10.805Z,20.25
2023-04-30T08:55:10.806Z,20.55
2023-04-30T08:56:10.823Z,20.77
2023-04-30T08:57:10.766Z,20.03
2023-04-30T08:58:10.764Z,19.95
2023-04-30T08:59:10.754Z,20.22
2023-04-30T09:00:10.749Z,19.91
2023-04-30T09:01:10.835Z,20.31
2023-04-30T09:02:10.879Z,19.29
2023-04-30T09:03:10.784Z,18.41
2023-04-30T09:04:10.824Z,18.26
2023-04-30T09:05:10.689Z,18.04
2023-04-30T09:06:10.690Z,18.81
2023-04-30T09:07:10.694Z,18.59
2023-04-30T09:08:10.696Z,18.77
2023-04-30T09:09:10.624Z,19.37
2023-04-30T09:10:10.641Z,19.27
2023-04-30T09:11:10.632Z,19.51
2023-04-30T09:12:10.642Z,20.65
2023-04-30T09:13:10.585Z,21.52
2023-04-30T09:14:10.594Z,20.92
2023-04-30T09:15:10.560Z,20.22
2023-04-30T09:16:10.564Z,20.41
2023-04-30T09:17:10.585Z,20.63
2023-04-30T09:18:10.568Z,20.72
2023-04-30T09:19:10.514Z,21.00
2023-04-30T09:20:10.528Z,19.40
2023-04-30T09:21:10.499Z,17.86
2023-04-30T09:22:10.545Z,18.59
2023-04-30T09:23:10.485Z,17.97
2023-04-30T09:24:10.539Z,15.70
2023-04-30T09:25:10.473Z,15.10
2023-04-30T09:26:10.480Z,15.54
2023-04-30T09:27:10.479Z,16.58
2023-04-30T09:28:10.514Z,17.08
2023-04-30T09:29:10.442Z,16.75
2023-04-30T09:30:10.400Z,17.76
2023-04-30T09:31:10.388Z,18.45
2023-04-30T09:32:10.456Z,18.77
2023-04-30T09:33:12.215Z,18.55
2023-04-30T09:34:10.385Z,17.89
2023-04-30T09:35:10.363Z,17.01
2023-04-30T09:36:10.368Z,16.49
2023-04-30T09:37:10.363Z,16.31
2023-04-30T09:38:10.315Z,15.65
2023-04-30T09:39:12.055Z,16.49
2023-04-30T09:40:10.286Z,17.44
2023-04-30T09:41:10.276Z,18.52
2023-04-30T09:42:10.361Z,19.15
2023-04-30T09:43:10.236Z,19.48
2023-04-30T09:44:10.260Z,19.91
2023-04-30T09:45:10.224Z,20.18
2023-04-30T09:46:10.284Z,20.50
2023-04-30T09:47:10.273Z,20.00
2023-04-30T09:48:17.105Z,20.11
2023-04-30T09:49:11.202Z,19.36
2023-04-30T09:50:10.188Z,19.21
2023-04-30T09:51:10.164Z,19.95
2023-04-30T09:52:10.191Z,20.29
2023-04-30T09:53:10.162Z,20.56
2023-04-30T09:54:10.150Z,20.67
2023-04-30T09:55:10.147Z,20.78
2023-04-30T09:56:10.108Z,20.50
2023-04-30T09:57:10.122Z,20.63
2023-04-30T09:58:10.108Z,20.10
2023-04-30T09:59:10.080Z,18.52
2023-04-30T10:00:10.050Z,18.01
2023-04-30T10:01:10.111Z,18.58
2023-04-30T10:02:10.072Z,18.80
2023-04-30T10:03:10.064Z,19.55
2023-04-30T10:04:10.058Z,19.95
2023-04-30T10:05:09.989Z,19.88
2023-04-30T10:06:10.035Z,20.16
2023-04-30T10:07:10.032Z,20.39
2023-04-30T10:08:09.981Z,19.99
2023-04-30T10:09:09.966Z,20.18
2023-04-30T10:10:10.031Z,19.45
2023-04-30T10:11:09.938Z,19.99
2023-04-30T10:12:09.972Z,20.36
2023-04-30T10:13:09.964Z,20.66
2023-04-30T10:14:09.920Z,20.66
2023-04-30T10:15:09.895Z,20.74
2023-04-30T10:16:09.902Z,20.36
2023-04-30T10:17:09.921Z,20.32
2023-04-30T10:18:09.900Z,20.70
2023-04-30T10:19:09.871Z,21.02
2023-04-30T10:20:09.851Z,21.43
2023-04-30T10:21:09.848Z,22.23
2023-04-30T10:22:09.871Z,21.96
2023-04-30T10:23:09.812Z,20.95
2023-04-30T10:24:09.823Z,20.18
2023-04-30T10:25:09.794Z,19.95
2023-04-30T10:26:09.792Z,20.32
2023-04-30T10:27:09.843Z,20.10
2023-04-30T10:28:09.789Z,20.92
2023-04-30T10:29:09.741Z,20.90
2023-04-30T10:30:09.755Z,21.21
2023-04-30T10:31:09.738Z,21.30
2023-04-30T10:32:09.831Z,21.36
2023-04-30T10:33:09.803Z,20.87
2023-04-30T10:34:09.692Z,21.09
2023-04-30T10:35:09.700Z,19.95
2023-04-30T10:36:09.672Z,20.28
2023-04-30T10:37:09.658Z,20.66
2023-04-30T10:38:09.682Z,21.03
2023-04-30T10:39:09.622Z,20.26
2023-04-30T10:40:09.637Z,20.59
2023-04-30T10:41:09.684Z,20.40
2023-04-30T10:42:09.603Z,21.07
2023-04-30T10:43:09.635Z,21.61
2023-04-30T10:44:09.597Z,21.93
2023-04-30T10:45:09.572Z,21.91
2023-04-30T10:46:09.583Z,21.32
2023-04-30T10:47:09.538Z,21.72
2023-04-30T10:48:09.605Z,22.17
2023-04-30T10:49:09.526Z,22.23
2023-04-30T10:50:09.515Z,21.80
2023-04-30T10:51:09.512Z,20.40
2023-04-30T10:52:09.515Z,19.77
2023-04-30T10:53:09.536Z,19.99
2023-04-30T10:54:09.465Z,20.55
2023-04-30T10:55:09.474Z,21.42
2023-04-30T10:56:09.862Z,21.06
2023-04-30T10:57:09.453Z,20.26
2023-04-30T10:58:09.473Z,19.64
2023-04-30T10:59:09.468Z,19.27
2023-04-30T11:00:09.419Z,19.24
2023-04-30T11:01:09.441Z,19.91
2023-04-30T11:02:09.396Z,19.88
2023-04-30T11:03:09.466Z,19.14
2023-04-30T11:04:09.385Z,19.24
2023-04-30T11:05:09.384Z,18.71
2023-04-30T11:06:09.410Z,19.07
2023-04-30T11:07:09.314Z,19.70
2023-04-30T11:08:09.358Z,19.41
2023-04-30T11:09:09.330Z,19.71
2023-04-30T11:10:09.317Z,19.31
2023-04-30T11:11:09.306Z,20.29
2023-04-30T11:12:09.275Z,20.58
2023-04-30T11:13:09.305Z,20.44
2023-04-30T11:14:09.235Z,20.55
2023-04-30T11:15:09.268Z,20.77
2023-04-30T11:16:09.344Z,20.04
2023-04-30T11:17:09.228Z,19.91
2023-04-30T11:18:09.351Z,20.50
2023-04-30T11:19:11.294Z,20.65
2023-04-30T11:20:09.196Z,20.78
2023-04-30T11:21:09.166Z,20.40
2023-04-30T11:22:09.182Z,20.41
2023-04-30T11:23:09.209Z,20.96
2023-04-30T11:24:09.160Z,21.21
2023-04-30T11:25:09.130Z,20.97
2023-04-30T11:26:09.151Z,21.18
2023-04-30T11:27:09.109Z,21.20
2023-04-30T11:28:09.164Z,20.67
2023-04-30T11:29:09.163Z,18.81
2023-04-30T11:30:09.110Z,18.49
2023-04-30T11:31:09.194Z,17.29
2023-04-30T11:32:09.081Z,18.07
2023-04-30T11:33:09.295Z,18.70
2023-04-30T11:34:09.054Z,18.81
2023-04-30T11:35:09.032Z,19.34
2023-04-30T11:36:09.003Z,19.99
2023-04-30T11:37:09.011Z,20.67
2023-04-30T11:38:09.166Z,21.17
2023-04-30T11:39:09.003Z,20.69
2023-04-30T11:40:09.002Z,20.93
2023-04-30T11:41:08.954Z,20.66
2023-04-30T11:42:08.965Z,19.40
2023-04-30T11:43:09.005Z,17.72
2023-04-30T11:44:08.947Z,17.36
2023-04-30T11:45:08.959Z,18.25
2023-04-30T11:46:08.986Z,18.90
2023-04-30T11:47:09.027Z,19.36
2023-04-30T11:48:08.989Z,20.03
2023-04-30T11:49:08.940Z,20.47
2023-04-30T11:50:08.944Z,20.82
2023-04-30T11:51:08.870Z,21.33
2023-04-30T11:52:08.863Z,21.51
2023-04-30T11:53:08.864Z,21.35
2023-04-30T11:54:08.820Z,20.22
2023-04-30T11:55:08.843Z,20.93
2023-04-30T11:56:08.814Z,21.03
2023-04-30T11:57:08.821Z,20.37
2023-04-30T11:58:08.829Z,18.84
2023-04-30T11:59:08.794Z,19.04
2023-04-30T12:00:08.919Z,20.07
2023-04-30T12:01:08.775Z,19.14
2023-04-30T12:02:09.651Z,19.26
2023-04-30T12:03:08.889Z,19.99
2023-04-30T12:04:08.810Z,20.56
2023-04-30T12:05:08.708Z,21.27
2023-04-30T12:06:08.716Z,21.52
2023-04-30T12:07:08.686Z,21.57
2023-04-30T12:08:08.725Z,22.07
2023-04-30T12:09:08.771Z,22.29
2023-04-30T12:10:08.671Z,22.66
2023-04-30T12:11:08.652Z,22.41
2023-04-30T12:12:08.648Z,22.63
2023-04-30T12:13:08.676Z,22.80
2023-04-30T12:14:08.603Z,22.43
2023-04-30T12:15:08.625Z,21.46
2023-04-30T12:16:08.636Z,21.76
2023-04-30T12:17:08.590Z,21.36
2023-04-30T12:18:08.650Z,21.60
2023-04-30T12:19:08.576Z,21.18
2023-04-30T12:20:08.619Z,20.21
2023-04-30T12:21:08.528Z,19.76
2023-04-30T12:22:08.528Z,20.48
2023-04-30T12:23:08.559Z,20.59
2023-04-30T12:24:08.514Z,19.33
2023-04-30T12:25:08.545Z,19.14
2023-04-30T12:26:08.496Z,19.96
2023-04-30T12:27:08.470Z,20.65
2023-04-30T12:28:08.502Z,21.09
2023-04-30T12:29:08.457Z,21.43
2023-04-30T12:30:08.480Z,21.22
2023-04-30T12:31:08.421Z,20.74
2023-04-30T12:32:08.474Z,20.41
2023-04-30T12:33:08.466Z,20.59
2023-04-30T12:34:08.391Z,21.11
2023-04-30T12:35:08.398Z,21.40
2023-04-30T12:36:08.368Z,20.14
2023-04-30T12:37:08.395Z,20.16
2023-04-30T12:38:08.445Z,21.02
2023-04-30T12:39:08.346Z,21.30
2023-04-30T12:40:08.328Z,21.09
2023-04-30T12:41:08.315Z,21.67
2023-04-30T12:42:08.312Z,21.95
2023-04-30T12:43:08.306Z,22.08
2023-04-30T12:44:08.338Z,21.32
2023-04-30T12:45:08.287Z,20.95
2023-04-30T12:46:08.298Z,21.35
2023-04-30T12:47:08.262Z,22.06
2023-04-30T12:48:08.280Z,22.72
2023-04-30T12:49:08.270Z,23.08
2023-04-30T12:50:08.238Z,23.73
2023-04-30T12:51:08.201Z,23.68
2023-04-30T12:52:08.213Z,22.47
2023-04-30T12:53:08.217Z,22.04
2023-04-30T12:54:08.203Z,21.75
2023-04-30T12:55:08.158Z,21.69
2023-04-30T12:56:08.143Z,21.66
2023-04-30T12:57:08.157Z,21.83
2023-04-30T12:58:08.126Z,21.85
2023-04-30T12:59:08.158Z,20.81
2023-04-30T13:00:08.095Z,21.32
2023-04-30T13:01:08.141Z,21.88